SBNF

Ministro Victor Konder International Airport

Navegantes, Brazil
TAF SBNF 210900Z 2112/2212 24008KT 9999 SCT012 BKN020 TX26/2118Z TN16/2208Z BECMG 2114/2116 35007KT 9999 SCT030 BECMG 2122/2124 24008KT CAVOK BECMG 2204/2206 9999 SCT008 BKN020 RMK PDJ
Issued Valid From Valid To
Jun-21 @ 09:00 UTC
(9 hours ago)
Jun-21 @ 12:00 UTC
(6 hours ago)
Jun-22 @ 12:00 UTC
(in 18 hours)
Expired Click to View Jun-21 @ 12:00 to Jun-21 @ 14:00
TAF SBNF 210900Z 2112/2212 24008KT 9999 SCT012 BKN020 TX26/2118Z TN16/2208Z
Wind Visibility Clouds
240° at 8 knots 10,000+ meters
  • Scattered at 1,200' AGL
  • Broken at 2,000' AGL
Becoming Jun-21 @ 14:00 to Jun-21 @ 22:00
BECMG 2114/2116 35007KT 9999 SCT030
Wind Visibility Clouds
350° at 7 knots 10,000+ meters
  • Scattered at 3,000' AGL
Becoming Jun-21 @ 22:00 to Jun-22 @ 04:00
BECMG 2122/2124 24008KT CAVOK
Wind Visibility Clouds Conditions
240° at 8 knots 10,000+ meters
  • No significant clouds
Becoming Jun-22 @ 04:00 to Jun-22 @ 12:00
BECMG 2204/2206 9999 SCT008 BKN020 RMK PDJ
Wind Visibility Clouds Conditions
240° at 8 knots 10,000+ meters
  • Scattered at 800' AGL
  • Broken at 2,000' AGL
TAF SBNF 210900Z 2112/2212 24008KT 9999 SCT012 BKN020 TX26/2118Z TN16/2208Z BECMG 2114/2116 35007KT 9999 SCT030 BECMG 2122/2124 24008KT CAVOK BECMG 2204/2206 9999 SCT008 BKN020 RMK PDJ
Issued Jun-21 @ 09:00 UTC
(9 hours ago)
Valid From Jun-21 @ 12:00 UTC
(6 hours ago)
Valid To Jun-22 @ 12:00 UTC
(in 18 hours)
Jun-21 @ 12:00 - Jun-21 @ 14:00
Wind Visibility
240° at 8 knots 10,000+ meters
Clouds
  • Scattered at 1,200' AGL
  • Broken at 2,000' AGL
Becoming Jun-21 @ 14:00 - Jun-21 @ 22:00
Wind Visibility
350° at 7 knots 10,000+ meters
Clouds
  • Scattered at 3,000' AGL
Becoming Jun-21 @ 22:00 - Jun-22 @ 04:00
Wind Visibility
240° at 8 knots 10,000+ meters
Clouds
  • No significant clouds
Conditions
Becoming Jun-22 @ 04:00 - Jun-22 @ 12:00
Wind Visibility
240° at 8 knots 10,000+ meters
Clouds
  • Scattered at 800' AGL
  • Broken at 2,000' AGL
Conditions